GRZ523 Details

Departure: Eareckson Air Station (PASY)
Arrival: Ted Stevens Anchorage International Airport (PANC)
Route: SYA G8 ADK G1 ELF G12 HBT G2 RWO ODK AMOTT4


Current Weather Information
PASY 250321Z 17011KT 20SM BKN009 OVC014 05/02 A3016 RMK AO2A BKN009 V BKN SLP216 RVRNO $
PANC 250253Z 33005KT 10SM FEW050 SCT060 SCT120 16/05 A3018 RMK AO2 SLP222 T01610050 58013